Time;durP1;ratioP1;P1;durP2;ratioP2;P2;SDS_P1;SDS_P2;PMS_P1;PMS_P2;Temp;Humidity;BMP_temperature;BMP_pressure;BME280_temperature;BME280_humidity;BME280_pressure;Samples;Min_cycle;Max_cycle;Signal;HPM_P1;HPM_P2
2021/07/29 04:01:23;;;;;;;8.13;6.70;;;17.10;99.90;;;;;;5550535;23;20906;-63
2021/07/29 04:03:50;;;;;;;6.50;5.90;;;17.10;99.90;;;;;;4995157;28;20461;-62
2021/07/29 04:06:17;;;;;;;6.40;5.90;;;17.10;99.90;;;;;;4995252;28;20861;-63
2021/07/29 04:08:44;;;;;;;8.03;7.23;;;17.10;99.90;;;;;;4994496;28;20473;-63
2021/07/29 04:11:11;;;;;;;7.03;6.53;;;17.10;99.90;;;;;;4994188;28;20509;-62
2021/07/29 04:13:37;;;;;;;6.43;5.83;;;17.10;99.90;;;;;;4994345;28;20454;-62
2021/07/29 04:16:05;;;;;;;7.43;6.73;;;17.10;99.90;;;;;;4994275;28;20454;-62
2021/07/29 04:18:33;;;;;;;7.13;6.60;;;17.10;99.90;;;;;;4994208;28;20842;-62
2021/07/29 04:21:00;;;;;;;7.97;6.60;;;17.10;99.90;;;;;;4994174;28;20481;-62
2021/07/29 04:23:27;;;;;;;9.33;6.80;;;17.00;99.90;;;;;;4993855;28;20973;-62
2021/07/29 04:25:53;;;;;;;6.90;6.23;;;17.00;99.90;;;;;;4994195;28;20516;-62
2021/07/29 04:28:20;;;;;;;7.07;6.47;;;17.00;99.90;;;;;;4994183;28;20449;-63
2021/07/29 04:30:47;;;;;;;6.83;6.33;;;17.00;99.90;;;;;;4994028;28;20485;-62
2021/07/29 04:33:14;;;;;;;6.53;5.97;;;17.00;99.90;;;;;;4993862;28;20962;-62
2021/07/29 04:35:42;;;;;;;6.40;5.90;;;17.00;99.90;;;;;;4993765;28;20938;-62
2021/07/29 04:38:08;;;;;;;7.20;6.60;;;17.00;99.90;;;;;;4994310;28;20458;-62
2021/07/29 04:40:35;;;;;;;7.33;6.40;;;17.00;99.90;;;;;;4993999;28;20477;-62
2021/07/29 04:43:01;;;;;;;6.30;5.90;;;17.00;99.90;;;;;;4994009;28;20458;-62
2021/07/29 04:45:28;;;;;;;6.50;5.90;;;16.90;99.90;;;;;;4993994;28;20450;-62
2021/07/29 04:47:55;;;;;;;5.90;5.47;;;16.90;99.90;;;;;;4993958;28;20465;-62
2021/07/29 04:50:22;;;;;;;6.50;6.00;;;16.90;99.90;;;;;;4993859;28;20453;-62
2021/07/29 04:52:51;;;;;;;7.07;6.40;;;16.90;99.90;;;;;;4993960;28;20461;-61
2021/07/29 04:55:18;;;;;;;7.37;6.63;;;16.90;99.90;;;;;;4993930;28;20458;-61
2021/07/29 04:57:44;;;;;;;6.67;5.60;;;16.90;99.90;;;;;;4993722;28;20874;-61
2021/07/29 05:00:12;;;;;;;6.60;6.20;;;17.00;99.90;;;;;;4993812;28;20453;-61
2021/07/29 05:02:39;;;;;;;5.80;5.40;;;17.00;99.90;;;;;;4993848;28;20453;-61
2021/07/29 05:05:06;;;;;;;10.17;6.50;;;17.00;99.90;;;;;;4993878;28;20454;-61
2021/07/29 05:07:33;;;;;;;9.20;7.23;;;17.00;99.90;;;;;;4993891;28;20529;-61
2021/07/29 05:10:01;;;;;;;7.60;6.73;;;17.10;99.90;;;;;;4993782;28;20454;-61
2021/07/29 05:12:28;;;;;;;7.23;6.63;;;17.10;99.90;;;;;;4997394;28;20488;-61
2021/07/29 05:14:56;;;;;;;9.33;7.83;;;17.20;99.90;;;;;;4997411;28;20453;-61
2021/07/29 05:17:23;;;;;;;6.90;6.03;;;17.20;99.90;;;;;;4997352;28;20433;-61
2021/07/29 05:19:50;;;;;;;6.63;6.03;;;17.30;99.90;;;;;;4997158;28;20458;-61
2021/07/29 05:22:17;;;;;;;7.10;6.37;;;17.40;99.90;;;;;;4996885;28;20978;-61
2021/07/29 05:24:43;;;;;;;6.23;5.70;;;17.50;99.90;;;;;;4997374;28;20512;-61
2021/07/29 05:27:11;;;;;;;6.23;5.73;;;17.60;99.90;;;;;;4997295;28;20442;-61
2021/07/29 05:29:38;;;;;;;7.83;6.10;;;17.80;99.90;;;;;;4997438;28;20457;-61
2021/07/29 05:32:06;;;;;;;6.07;5.57;;;18.00;99.90;;;;;;4996578;28;20978;-61
2021/07/29 05:34:33;;;;;;;6.20;5.70;;;18.10;99.90;;;;;;4997028;28;20464;-61
2021/07/29 05:37:00;;;;;;;6.70;5.80;;;18.20;99.90;;;;;;4996996;28;20456;-61
2021/07/29 05:39:28;;;;;;;7.93;5.90;;;18.40;99.90;;;;;;4996923;28;20464;-61
2021/07/29 05:41:54;;;;;;;9.63;6.40;;;18.50;99.90;;;;;;4996848;28;20473;-61
2021/07/29 05:44:22;;;;;;;6.43;5.70;;;18.50;99.90;;;;;;4996825;28;20450;-61
2021/07/29 05:46:49;;;;;;;6.30;5.23;;;18.70;99.90;;;;;;4996945;28;20461;-63
2021/07/29 05:49:16;;;;;;;7.30;6.63;;;18.80;99.90;;;;;;4996854;28;20465;-63
2021/07/29 05:51:42;;;;;;;5.73;5.23;;;18.90;99.90;;;;;;4996557;28;20489;-63
2021/07/29 05:54:09;;;;;;;5.57;5.17;;;19.10;99.90;;;;;;4997064;28;20450;-61
2021/07/29 05:56:36;;;;;;;5.43;4.93;;;19.30;99.90;;;;;;4996868;28;20461;-61
2021/07/29 05:59:02;;;;;;;4.97;4.47;;;19.40;99.90;;;;;;4997191;28;20461;-61
2021/07/29 06:01:30;;;;;;;5.10;4.07;;;19.60;99.90;;;;;;4996356;28;20481;-61
2021/07/29 06:03:57;;;;;;;5.37;4.97;;;19.80;99.90;;;;;;4996484;28;20450;-61
2021/07/29 06:06:24;;;;;;;9.37;4.83;;;20.00;99.90;;;;;;4996460;28;20505;-61
2021/07/29 06:08:53;;;;;;;5.07;4.40;;;20.20;99.90;;;;;;4996501;28;20492;-61
2021/07/29 06:11:20;;;;;;;6.97;4.50;;;20.40;99.90;;;;;;4996053;28;20482;-62
2021/07/29 06:13:46;;;;;;;5.20;3.60;;;20.60;99.90;;;;;;4996549;28;20817;-62
2021/07/29 06:16:13;;;;;;;3.87;3.03;;;20.90;99.90;;;;;;4996199;28;20465;-62
2021/07/29 06:18:53;;;;;;;3.27;3.03;;;21.10;99.90;;;;;;4996154;28;20546;-62
2021/07/29 06:21:19;;;;;;;3.70;3.40;;;21.20;99.90;;;;;;4996108;28;20540;-62
2021/07/29 06:23:46;;;;;;;3.37;3.17;;;21.60;99.90;;;;;;4996593;28;20474;-62
2021/07/29 06:26:13;;;;;;;3.87;3.57;;;21.90;99.90;;;;;;4996058;28;20947;-62
2021/07/29 06:28:39;;;;;;;3.50;3.30;;;22.00;99.90;;;;;;4995738;28;20844;-62
2021/07/29 06:31:08;;;;;;;3.37;3.13;;;22.30;99.90;;;;;;4995934;28;20862;-62
2021/07/29 06:33:34;;;;;;;3.17;3.00;;;22.50;99.90;;;;;;4995640;28;20795;-62
2021/07/29 06:36:03;;;;;;;6.03;3.20;;;22.90;99.90;;;;;;4995954;28;20461;-62
2021/07/29 06:38:30;;;;;;;3.57;3.27;;;23.30;99.90;;;;;;4995997;28;20469;-62
2021/07/29 06:40:56;;;;;;;2.87;2.67;;;23.60;99.90;;;;;;4995891;28;20477;-62
2021/07/29 06:43:24;;;;;;;3.43;3.13;;;23.80;99.90;;;;;;4995809;28;20796;-61
2021/07/29 06:45:50;;;;;;;3.17;2.57;;;24.10;99.90;;;;;;4995723;28;20442;-61
2021/07/29 06:48:17;;;;;;;3.13;2.83;;;24.40;99.90;;;;;;4995688;28;20480;-61
2021/07/29 06:50:44;;;;;;;2.90;2.70;;;24.90;99.90;;;;;;4995485;28;20834;-61
2021/07/29 06:53:12;;;;;;;3.53;3.20;;;25.10;99.90;;;;;;4995424;28;21026;-62
2021/07/29 06:55:39;;;;;;;2.80;2.60;;;25.50;99.90;;;;;;4995587;28;20509;-61
2021/07/29 06:58:06;;;;;;;3.00;2.80;;;25.60;99.90;;;;;;4996245;28;20458;-62
2021/07/29 07:00:33;;;;;;;5.53;2.90;;;25.80;99.90;;;;;;4995143;28;20910;-62
2021/07/29 07:03:00;;;;;;;2.60;2.50;;;26.20;99.90;;;;;;4995376;28;20482;-62
2021/07/29 07:05:27;;;;;;;3.83;3.07;;;26.70;99.90;;;;;;4995213;28;20513;-62
2021/07/29 07:07:54;;;;;;;3.87;2.63;;;27.10;99.90;;;;;;4995220;28;20437;-61
2021/07/29 07:10:22;;;;;;;5.80;3.17;;;27.70;99.90;;;;;;4994973;28;20818;-61
2021/07/29 07:12:50;;;;;;;3.30;3.10;;;28.00;99.90;;;;;;4995077;28;20477;-61
2021/07/29 07:15:17;;;;;;;3.07;2.77;;;28.40;99.90;;;;;;4995211;28;20460;-61
2021/07/29 07:17:44;;;;;;;2.90;2.60;;;28.70;99.50;;;;;;4994832;28;20798;-61
2021/07/29 07:20:11;;;;;;;3.93;2.47;;;28.90;99.00;;;;;;4996568;28;20800;-62
2021/07/29 07:22:37;;;;;;;2.87;2.77;;;29.00;97.80;;;;;;4996377;28;20508;-62
2021/07/29 07:25:05;;;;;;;3.00;2.70;;;28.90;98.40;;;;;;4996172;28;20446;-62
2021/07/29 07:27:33;;;;;;;3.20;3.00;;;29.10;95.90;;;;;;4996216;28;20508;-62
2021/07/29 07:30:00;;;;;;;2.60;2.50;;;29.00;95.90;;;;;;4994924;28;20529;-62
2021/07/29 07:32:26;;;;;;;5.30;3.30;;;28.80;94.00;;;;;;4994673;28;20488;-61
2021/07/29 07:34:53;;;;;;;2.93;2.80;;;28.10;95.50;;;;;;4994872;28;20446;-62
2021/07/29 07:37:20;;;;;;;2.90;2.70;;;27.40;95.00;;;;;;4995117;28;20448;-61
2021/07/29 07:39:47;;;;;;;4.60;3.70;;;26.30;96.80;;;;;;4994904;28;20466;-61
2021/07/29 07:42:14;;;;;;;3.87;3.57;;;25.90;98.70;;;;;;4995247;28;20831;-61
2021/07/29 07:44:42;;;;;;;3.60;3.30;;;25.50;99.90;;;;;;4994744;28;20445;-61
2021/07/29 07:47:08;;;;;;;3.97;3.77;;;25.20;99.90;;;;;;4994677;28;20915;-61
2021/07/29 07:49:35;;;;;;;3.83;3.53;;;25.00;99.90;;;;;;4995099;28;20446;-61
2021/07/29 07:52:02;;;;;;;3.90;3.60;;;24.70;99.90;;;;;;4994350;28;20517;-61
2021/07/29 07:54:29;;;;;;;3.77;3.40;;;24.60;99.90;;;;;;4994552;28;20950;-61
2021/07/29 07:56:55;;;;;;;3.60;3.10;;;24.50;99.90;;;;;;4994783;28;20476;-61
2021/07/29 07:59:22;;;;;;;5.10;3.40;;;24.40;99.90;;;;;;4994547;28;20481;-61
2021/07/29 08:01:50;;;;;;;3.50;3.20;;;24.70;99.90;;;;;;4994375;28;20501;-61
2021/07/29 08:04:17;;;;;;;3.80;3.50;;;25.20;99.90;;;;;;4994673;28;20489;-61
2021/07/29 08:06:44;;;;;;;3.60;3.40;;;25.40;99.90;;;;;;4994768;28;20457;-61
2021/07/29 08:09:10;;;;;;;4.90;3.60;;;25.40;99.90;;;;;;4994488;28;20458;-61
2021/07/29 08:11:37;;;;;;;3.20;3.00;;;25.90;99.90;;;;;;4994059;28;20478;-61
2021/07/29 08:14:04;;;;;;;3.53;3.30;;;26.70;99.90;;;;;;4994638;28;20826;-61
2021/07/29 08:16:31;;;;;;;3.30;3.10;;;27.10;99.90;;;;;;4994283;28;20454;-61
2021/07/29 08:18:59;;;;;;;3.90;3.57;;;27.70;99.90;;;;;;4994317;28;20461;-61
2021/07/29 08:21:25;;;;;;;3.57;3.37;;;27.70;97.70;;;;;;4994624;28;20473;-61
2021/07/29 08:23:52;;;;;;;5.60;3.90;;;27.30;98.80;;;;;;4994746;28;20554;-61
2021/07/29 08:26:19;;;;;;;3.60;3.40;;;27.00;99.90;;;;;;4995406;28;20457;-62
2021/07/29 08:28:46;;;;;;;5.30;3.60;;;26.50;99.90;;;;;;4994404;28;20438;-62
2021/07/29 08:31:14;;;;;;;5.47;4.10;;;26.20;99.90;;;;;;4994090;28;20469;-61
2021/07/29 08:33:42;;;;;;;4.00;3.60;;;26.20;99.90;;;;;;4994230;28;20500;-61
2021/07/29 08:36:14;;;;;;;3.37;3.17;;;26.70;99.90;;;;;;4994096;28;20854;-62
2021/07/29 08:38:41;;;;;;;3.67;3.40;;;27.50;99.90;;;;;;4994091;28;20434;-62
2021/07/29 08:41:08;;;;;;;3.23;3.03;;;28.40;99.90;;;;;;4994029;28;20512;-62
2021/07/29 08:43:35;;;;;;;3.13;2.93;;;29.10;99.80;;;;;;4994063;28;20450;-62
2021/07/29 08:46:04;;;;;;;4.33;3.37;;;29.40;98.40;;;;;;4995910;28;20453;-62
2021/07/29 08:48:32;;;;;;;3.60;3.17;;;29.40;96.60;;;;;;4998375;28;20472;-61
2021/07/29 08:50:59;;;;;;;3.03;2.87;;;29.00;96.90;;;;;;4997488;28;20839;-61
2021/07/29 08:53:27;;;;;;;4.03;3.70;;;28.60;96.30;;;;;;4997789;28;20462;-62
2021/07/29 08:55:56;;;;;;;4.30;4.00;;;28.10;98.50;;;;;;4997690;28;20457;-61
2021/07/29 08:58:23;;;;;;;5.33;3.60;;;27.50;98.40;;;;;;4997869;28;20458;-62
2021/07/29 09:01:05;;;;;;;6.57;3.53;;;27.10;99.30;;;;;;4997473;28;20536;-61
2021/07/29 09:03:33;;;;;;;3.37;3.17;;;26.60;99.90;;;;;;4997265;28;20433;-61
2021/07/29 09:06:01;;;;;;;3.90;3.60;;;26.60;99.90;;;;;;4997572;28;20457;-62
2021/07/29 09:08:41;;;;;;;3.60;3.40;;;26.60;99.90;;;;;;4997439;28;20555;-61
2021/07/29 09:11:25;;;;;;;4.23;3.93;;;27.10;99.30;;;;;;4997114;28;20988;-62
2021/07/29 09:14:03;;;;;;;3.80;3.50;;;27.70;99.50;;;;;;4997339;28;20465;-62
2021/07/29 09:16:33;;;;;;;3.50;3.30;;;28.20;99.90;;;;;;4997669;28;20482;-63
2021/07/29 09:19:00;;;;;;;3.80;3.50;;;29.00;98.50;;;;;;4997420;28;20525;-63
2021/07/29 09:21:27;;;;;;;3.90;3.30;;;29.30;96.50;;;;;;4996910;28;21036;-62
2021/07/29 09:24:06;;;;;;;3.73;3.53;;;29.60;94.60;;;;;;4997245;28;20461;-63
2021/07/29 09:27:00;;;;;;;3.10;2.90;;;29.70;92.30;;;;;;4997181;28;20442;-62
2021/07/29 09:29:28;;;;;;;4.50;3.60;;;29.40;92.10;;;;;;4973346;28;20461;-62
2021/07/29 09:32:05;;;;;;;3.80;3.50;;;29.00;93.70;;;;;;4996916;28;20478;-62
2021/07/29 09:34:42;;;;;;;4.40;3.80;;;28.90;94.30;;;;;;4996878;28;20445;-62
2021/07/29 09:37:10;;;;;;;5.33;3.80;;;29.10;94.20;;;;;;4996994;28;20520;-62
2021/07/29 09:39:38;;;;;;;4.10;3.83;;;29.20;90.90;;;;;;4996777;28;20457;-62
2021/07/29 09:42:19;;;;;;;3.80;3.60;;;28.80;90.40;;;;;;4997048;28;20473;-63
2021/07/29 09:44:48;;;;;;;3.60;3.40;;;28.80;93.70;;;;;;4996684;28;20848;-62
2021/07/29 09:47:16;;;;;;;3.90;3.60;;;28.80;91.70;;;;;;4996733;28;20461;-62
2021/07/29 09:49:42;;;;;;;4.10;3.90;;;28.70;93.30;;;;;;4996487;28;20460;-62
2021/07/29 09:52:10;;;;;;;3.60;3.33;;;28.90;91.50;;;;;;4998623;28;20994;-62
2021/07/29 09:54:41;;;;;;;4.17;3.77;;;29.00;92.40;;;;;;4997121;28;20485;-63
2021/07/29 09:57:09;;;;;;;3.73;3.53;;;29.00;91.20;;;;;;4996680;28;20445;-63
2021/07/29 09:59:36;;;;;;;5.17;3.33;;;30.10;88.90;;;;;;4996658;28;20461;-63
2021/07/29 10:02:04;;;;;;;3.77;3.47;;;30.80;81.10;;;;;;4996196;28;20993;-63
2021/07/29 10:04:37;;;;;;;3.50;3.20;;;31.60;86.00;;;;;;4996513;28;20463;-63
2021/07/29 10:07:08;;;;;;;3.40;3.20;;;32.40;79.80;;;;;;4996500;28;20452;-63
2021/07/29 10:09:44;;;;;;;3.67;3.47;;;33.20;72.60;;;;;;4996014;28;20449;-63
2021/07/29 10:12:19;;;;;;;3.13;2.93;;;34.10;69.70;;;;;;4996321;28;20481;-63
2021/07/29 10:14:50;;;;;;;3.50;3.30;;;34.00;65.50;;;;;;4996436;28;20488;-63
2021/07/29 10:17:18;;;;;;;5.60;4.07;;;33.60;66.00;;;;;;4996069;28;20929;-63
2021/07/29 10:20:16;;;;;;;3.57;3.37;;;33.00;68.70;;;;;;4996378;28;20460;-63
2021/07/29 10:22:43;;;;;;;3.70;3.40;;;32.40;68.30;;;;;;4995861;28;20943;-62
2021/07/29 10:25:10;;;;;;;3.53;3.23;;;32.30;71.10;;;;;;4996098;28;20454;-62
2021/07/29 10:27:38;;;;;;;3.90;3.70;;;32.70;70.70;;;;;;4996026;28;20465;-63
2021/07/29 10:30:36;;;;;;;4.10;3.90;;;33.10;67.10;;;;;;4996083;28;20458;-62
2021/07/29 10:33:17;;;;;;;4.07;3.73;;;33.40;68.30;;;;;;4995981;28;20469;-62
2021/07/29 10:35:44;;;;;;;5.23;3.67;;;33.90;64.80;;;;;;4996383;28;20434;-62
2021/07/29 10:38:10;;;;;;;4.20;3.80;;;34.00;60.90;;;;;;4995766;28;20453;-62
2021/07/29 10:40:38;;;;;;;7.87;3.80;;;34.30;69.00;;;;;;4995828;28;20500;-63
2021/07/29 10:43:41;;;;;;;4.07;3.77;;;34.40;66.20;;;;;;4995755;28;20453;-63
2021/07/29 10:46:09;;;;;;;4.80;4.40;;;33.90;61.80;;;;;;4995763;28;20550;-63
2021/07/29 10:49:12;;;;;;;4.63;4.33;;;34.00;62.50;;;;;;4995696;28;20457;-63
2021/07/29 10:51:59;;;;;;;3.83;3.53;;;34.30;63.20;;;;;;4995527;28;20473;-63
2021/07/29 10:54:27;;;;;;;3.77;3.50;;;34.50;62.20;;;;;;4995201;28;20453;-63
2021/07/29 10:56:54;;;;;;;3.70;3.40;;;34.70;60.20;;;;;;4995465;28;20453;-63
2021/07/29 10:59:22;;;;;;;3.70;3.50;;;34.60;62.90;;;;;;4995460;28;20877;-63
2021/07/29 11:01:50;;;;;;;5.07;4.63;;;34.30;59.40;;;;;;4995145;28;20481;-63
2021/07/29 11:04:17;;;;;;;3.57;3.17;;;33.80;59.90;;;;;;4995333;28;20450;-63
2021/07/29 11:06:44;;;;;;;3.67;3.37;;;33.70;63.70;;;;;;4995264;28;20461;-63
2021/07/29 11:09:13;;;;;;;3.10;3.00;;;34.00;64.40;;;;;;4994361;28;20946;-63
2021/07/29 11:11:40;;;;;;;4.40;4.10;;;34.30;59.50;;;;;;4995153;28;20582;-63
2021/07/29 11:14:08;;;;;;;4.00;3.70;;;33.30;60.20;;;;;;4995084;28;20535;-63
2021/07/29 11:16:37;;;;;;;5.33;4.00;;;33.00;61.90;;;;;;4994832;28;21021;-62
2021/07/29 11:19:05;;;;;;;4.77;4.47;;;33.00;63.20;;;;;;4995019;28;20464;-63
2021/07/29 11:21:32;;;;;;;4.00;3.70;;;33.10;62.90;;;;;;4997572;28;20477;-63
2021/07/29 11:23:59;;;;;;;4.70;3.80;;;33.20;59.80;;;;;;4995165;28;20484;-63
2021/07/29 11:26:26;;;;;;;4.10;3.80;;;33.40;65.70;;;;;;4995007;28;20453;-63
2021/07/29 11:29:09;;;;;;;4.37;4.10;;;33.70;61.90;;;;;;4995083;28;20457;-63
2021/07/29 11:31:38;;;;;;;3.63;3.43;;;33.90;64.90;;;;;;4994787;28;20484;-63
2021/07/29 11:34:06;;;;;;;4.43;4.13;;;34.00;62.50;;;;;;4994714;28;20478;-63
2021/07/29 11:36:33;;;;;;;4.30;4.00;;;34.10;60.90;;;;;;4994830;28;20457;-62
2021/07/29 11:39:02;;;;;;;4.30;3.90;;;33.90;63.80;;;;;;4994595;28;20942;-63
2021/07/29 11:41:29;;;;;;;4.07;3.73;;;34.00;59.60;;;;;;4994675;28;20480;-62
2021/07/29 11:44:00;;;;;;;4.20;3.80;;;33.70;62.60;;;;;;4994782;28;20453;-62
2021/07/29 11:46:27;;;;;;;3.80;3.50;;;33.30;62.50;;;;;;4994596;28;20524;-62
2021/07/29 11:49:08;;;;;;;4.53;4.20;;;33.00;67.00;;;;;;4994615;28;20461;-62
2021/07/29 11:51:35;;;;;;;3.93;3.63;;;32.90;65.80;;;;;;4994419;28;20477;-62
2021/07/29 11:54:02;;;;;;;4.20;3.80;;;32.80;64.20;;;;;;4994456;28;20477;-62
2021/07/29 11:56:28;;;;;;;4.53;4.23;;;32.30;61.30;;;;;;4994594;28;20496;-62
2021/07/29 11:59:00;;;;;;;4.13;3.93;;;31.80;66.10;;;;;;4994515;28;20449;-62
2021/07/29 12:01:28;;;;;;;4.17;3.90;;;31.20;64.30;;;;;;4994105;28;20492;-62
2021/07/29 12:03:57;;;;;;;5.03;4.57;;;31.00;68.50;;;;;;4994203;28;20888;-62
2021/07/29 12:06:25;;;;;;;4.40;4.10;;;30.30;68.80;;;;;;4994666;28;20450;-62
2021/07/29 12:08:54;;;;;;;4.40;3.80;;;30.30;66.80;;;;;;4994061;28;20899;-62
2021/07/29 12:11:22;;;;;;;3.93;3.73;;;29.80;69.30;;;;;;4994301;28;20477;-63
2021/07/29 12:13:49;;;;;;;5.33;3.90;;;30.00;70.60;;;;;;4994351;28;20520;-62
2021/07/29 12:16:16;;;;;;;4.07;3.87;;;29.90;71.80;;;;;;4994305;28;20460;-62
2021/07/29 12:18:42;;;;;;;5.60;3.90;;;29.70;70.80;;;;;;4994147;28;20457;-62
2021/07/29 12:21:10;;;;;;;4.27;4.07;;;29.70;73.00;;;;;;4995999;28;20480;-62
2021/07/29 12:23:49;;;;;;;4.20;3.90;;;29.90;74.30;;;;;;4998341;28;20454;-62
2021/07/29 12:26:16;;;;;;;4.70;4.30;;;29.90;71.40;;;;;;4997953;28;20442;-62
2021/07/29 12:28:44;;;;;;;4.40;4.10;;;30.00;72.10;;;;;;4998232;28;20442;-63
2021/07/29 12:31:19;;;;;;;4.63;4.23;;;29.90;69.40;;;;;;4998034;28;20489;-63
2021/07/29 12:33:50;;;;;;;4.00;3.70;;;29.70;73.20;;;;;;4997926;28;20469;-63
2021/07/29 12:36:17;;;;;;;4.10;3.90;;;29.80;70.10;;;;;;4998063;28;20464;-63
2021/07/29 12:38:45;;;;;;;3.90;3.70;;;29.90;71.50;;;;;;4998078;28;20544;-62
2021/07/29 12:41:32;;;;;;;4.20;3.90;;;29.60;72.10;;;;;;4997962;28;20484;-63
2021/07/29 12:44:16;;;;;;;4.00;3.60;;;29.50;70.80;;;;;;4997651;28;20433;-62
2021/07/29 12:46:44;;;;;;;4.80;3.90;;;29.60;72.80;;;;;;4997874;28;20438;-62
2021/07/29 12:49:12;;;;;;;4.40;4.10;;;29.50;72.00;;;;;;4998121;28;20457;-63
2021/07/29 12:51:42;;;;;;;6.73;4.67;;;29.40;68.40;;;;;;4997737;28;20472;-62
2021/07/29 12:54:12;;;;;;;4.60;3.73;;;29.30;73.80;;;;;;4997395;28;20986;-62
2021/07/29 12:56:39;;;;;;;3.90;3.70;;;29.20;72.60;;;;;;4997671;28;20951;-62
2021/07/29 12:59:07;;;;;;;4.40;4.10;;;29.30;75.90;;;;;;4997642;28;20458;-64
2021/07/29 13:01:34;;;;;;;4.90;3.90;;;29.60;72.20;;;;;;4997151;28;20493;-62
2021/07/29 13:04:01;;;;;;;4.77;4.40;;;29.60;70.70;;;;;;4997348;28;20457;-62
2021/07/29 13:06:28;;;;;;;4.03;3.80;;;29.80;74.10;;;;;;4997282;28;20939;-62
2021/07/29 13:08:55;;;;;;;4.00;3.70;;;30.00;71.70;;;;;;4997635;28;20458;-62
2021/07/29 13:11:24;;;;;;;4.43;4.03;;;29.80;71.50;;;;;;4997459;28;20477;-62
2021/07/29 13:13:51;;;;;;;4.40;4.10;;;29.60;71.50;;;;;;4997560;28;20501;-63
2021/07/29 13:16:18;;;;;;;4.70;4.40;;;29.30;74.00;;;;;;4997437;28;20457;-63
2021/07/29 13:18:45;;;;;;;5.03;4.20;;;29.00;72.00;;;;;;4998985;28;20489;-63
2021/07/29 13:21:12;;;;;;;4.17;3.87;;;28.70;72.40;;;;;;4997747;28;20481;-64
2021/07/29 13:23:39;;;;;;;4.63;4.33;;;28.80;75.90;;;;;;4997365;28;20942;-64
2021/07/29 13:26:06;;;;;;;4.13;3.90;;;28.70;73.00;;;;;;4997378;28;20458;-62
2021/07/29 13:28:34;;;;;;;3.90;3.60;;;28.60;74.10;;;;;;4997217;28;20464;-62
2021/07/29 13:31:07;;;;;;;4.20;3.80;;;28.50;74.60;;;;;;4996672;28;20473;-62
2021/07/29 13:33:35;;;;;;;4.73;4.30;;;28.60;76.70;;;;;;4997237;28;20473;-63
2021/07/29 13:36:02;;;;;;;4.10;3.77;;;28.60;74.50;;;;;;4997063;28;20820;-63
2021/07/29 13:38:28;;;;;;;4.73;4.40;;;28.60;72.80;;;;;;4997036;28;20454;-63
2021/07/29 13:40:55;;;;;;;4.47;3.67;;;28.60;73.70;;;;;;4997125;28;20473;-63
2021/07/29 13:43:22;;;;;;;6.17;4.20;;;28.40;75.00;;;;;;4996905;28;20450;-63
2021/07/29 13:45:50;;;;;;;4.63;4.30;;;28.60;75.90;;;;;;4996823;28;20449;-63
2021/07/29 13:48:17;;;;;;;4.07;3.77;;;28.90;77.50;;;;;;4996504;28;20457;-63
2021/07/29 13:50:44;;;;;;;4.40;3.77;;;28.90;72.20;;;;;;4996434;28;20477;-63
2021/07/29 13:53:11;;;;;;;5.13;3.80;;;29.10;75.50;;;;;;4996498;28;20454;-63
2021/07/29 13:55:38;;;;;;;5.23;3.90;;;29.10;74.40;;;;;;4996726;28;20464;-63
2021/07/29 13:58:04;;;;;;;4.60;4.20;;;29.20;72.20;;;;;;4996544;28;20460;-63
2021/07/29 14:00:31;;;;;;;4.23;3.93;;;29.40;74.90;;;;;;4996292;28;20461;-63
2021/07/29 14:03:01;;;;;;;4.17;3.80;;;29.30;73.70;;;;;;4998642;28;20442;-63
2021/07/29 14:05:27;;;;;;;5.93;4.10;;;29.30;75.60;;;;;;4998718;28;20458;-63
2021/07/29 14:07:54;;;;;;;3.63;3.43;;;29.20;71.20;;;;;;4996953;28;20915;-63
2021/07/29 14:10:21;;;;;;;3.80;3.60;;;29.40;77.60;;;;;;4996338;28;20530;-63
2021/07/29 14:12:48;;;;;;;4.37;3.97;;;29.30;71.90;;;;;;4996346;28;20453;-63
2021/07/29 14:15:15;;;;;;;3.83;3.40;;;29.30;70.90;;;;;;4996338;28;20528;-63
2021/07/29 14:17:46;;;;;;;4.03;3.83;;;29.20;73.20;;;;;;4996149;28;20464;-63
2021/07/29 14:23:03;;;;;;;3.63;3.40;;;29.40;76.50;;;;;;4996039;28;20453;-63
2021/07/29 14:25:30;;;;;;;5.60;3.73;;;29.60;73.60;;;;;;4996691;28;20481;-62
2021/07/29 14:27:58;;;;;;;4.27;3.70;;;29.60;74.60;;;;;;4996399;28;20453;-62
2021/07/29 14:30:25;;;;;;;4.07;3.77;;;29.60;72.00;;;;;;4996005;28;20523;-62
2021/07/29 14:32:53;;;;;;;4.20;3.93;;;29.60;70.20;;;;;;4996059;28;20457;-62
2021/07/29 14:35:21;;;;;;;3.43;3.13;;;29.50;71.50;;;;;;4995787;28;20481;-62
2021/07/29 14:37:47;;;;;;;4.10;3.73;;;29.30;72.40;;;;;;4995557;28;21000;-62
2021/07/29 14:40:14;;;;;;;3.90;3.70;;;29.30;72.40;;;;;;4995815;28;20848;-62
2021/07/29 14:42:42;;;;;;;4.10;3.80;;;28.90;72.50;;;;;;4995432;28;20480;-62
2021/07/29 14:50:41;;;;;;;4.30;4.00;;;28.90;73.80;;;;;;4995871;28;20503;-62
2021/07/29 14:53:08;;;;;;;4.50;4.00;;;28.90;71.10;;;;;;4995856;28;20766;-62
2021/07/29 14:55:44;;;;;;;3.70;3.43;;;29.00;70.50;;;;;;4995372;28;20536;-62
2021/07/29 16:07:13;;;;;;;4.20;3.80;;;28.10;73.70;;;;;;4994365;28;20417;-61
2021/07/29 16:09:39;;;;;;;3.80;3.50;;;28.00;71.90;;;;;;4994283;28;20449;-62
2021/07/29 16:12:08;;;;;;;4.73;3.87;;;28.00;75.10;;;;;;4994034;28;20505;-62
2021/07/29 16:14:35;;;;;;;4.43;3.70;;;28.00;76.10;;;;;;4994484;28;20895;-62
2021/07/29 16:17:02;;;;;;;3.47;3.20;;;28.00;76.60;;;;;;4994368;28;20464;-62
2021/07/29 16:19:30;;;;;;;6.20;3.67;;;28.00;77.00;;;;;;4993898;28;20457;-62
2021/07/29 16:21:57;;;;;;;4.33;3.93;;;28.10;75.70;;;;;;4994643;28;21081;-62
2021/07/29 16:24:23;;;;;;;4.77;3.70;;;27.90;74.30;;;;;;4993935;28;20458;-62
2021/07/29 16:26:51;;;;;;;4.30;3.23;;;27.80;74.40;;;;;;4994168;28;20515;-61
2021/07/29 16:29:20;;;;;;;3.40;3.10;;;27.70;75.20;;;;;;4994145;28;20453;-62
2021/07/29 16:31:47;;;;;;;6.77;5.30;;;27.50;73.70;;;;;;4994027;28;20493;-62
2021/07/29 16:34:14;;;;;;;4.20;3.90;;;27.30;78.00;;;;;;4994477;28;20473;-61
2021/07/29 16:36:41;;;;;;;3.60;3.30;;;27.30;76.60;;;;;;4995519;28;20462;-62
2021/07/29 16:39:08;;;;;;;7.07;6.33;;;27.10;75.90;;;;;;4994589;28;20511;-62
2021/07/29 16:41:36;;;;;;;8.47;6.80;;;26.90;76.70;;;;;;4993668;28;20478;-62
2021/07/29 16:44:05;;;;;;;7.33;6.63;;;26.90;79.30;;;;;;4993808;28;20445;-61
2021/07/29 16:46:34;;;;;;;7.13;6.47;;;26.80;80.80;;;;;;4993933;28;20841;-62
2021/07/29 16:49:00;;;;;;;5.30;4.33;;;26.70;80.40;;;;;;4993918;28;20457;-61
2021/07/29 16:51:27;;;;;;;3.40;3.20;;;26.70;78.70;;;;;;4994028;28;20481;-62
2021/07/29 16:53:54;;;;;;;3.90;3.60;;;26.50;78.40;;;;;;4993965;28;20457;-61
2021/07/29 16:56:20;;;;;;;4.47;4.10;;;26.50;79.00;;;;;;4994106;28;20461;-62
2021/07/29 16:58:47;;;;;;;4.10;3.90;;;26.30;78.50;;;;;;4994326;28;20571;-62
2021/07/29 17:01:14;;;;;;;5.40;4.67;;;26.30;82.00;;;;;;4993518;28;20551;-62
2021/07/29 17:03:44;;;;;;;3.83;3.63;;;26.20;81.80;;;;;;4993980;28;20463;-62
2021/07/29 17:06:10;;;;;;;4.67;3.40;;;26.10;81.60;;;;;;4994178;28;20524;-62
2021/07/29 17:08:37;;;;;;;3.73;3.43;;;25.90;80.90;;;;;;4997570;28;20461;-62
2021/07/29 17:11:04;;;;;;;3.53;3.33;;;25.80;80.60;;;;;;4997323;28;21016;-62
2021/07/29 17:13:30;;;;;;;5.13;3.50;;;25.70;81.20;;;;;;4997281;28;20856;-63
2021/07/29 17:15:57;;;;;;;4.53;4.13;;;25.70;84.00;;;;;;4997425;28;20840;-63
2021/07/29 17:18:25;;;;;;;3.43;3.23;;;25.70;87.20;;;;;;4998159;28;20828;-62
2021/07/29 17:20:53;;;;;;;3.63;3.40;;;25.60;85.70;;;;;;5000201;28;20473;-62
2021/07/29 17:23:20;;;;;;;3.50;3.20;;;25.60;84.20;;;;;;4999871;28;20488;-62
2021/07/29 17:25:47;;;;;;;3.70;3.40;;;25.50;83.40;;;;;;4998358;28;20449;-62
2021/07/29 17:28:13;;;;;;;3.57;3.37;;;25.30;83.30;;;;;;4997277;28;20939;-62
2021/07/29 17:30:40;;;;;;;3.53;3.27;;;25.20;84.30;;;;;;4997187;28;20482;-63
2021/07/29 17:33:07;;;;;;;4.13;3.57;;;25.20;84.30;;;;;;4997123;28;20458;-62
2021/07/29 17:35:36;;;;;;;4.10;3.80;;;25.10;84.50;;;;;;4997057;28;20480;-62
2021/07/29 17:38:04;;;;;;;3.73;3.50;;;25.00;84.70;;;;;;4997060;28;20453;-63
2021/07/29 17:40:31;;;;;;;2.93;2.73;;;24.90;85.60;;;;;;4997571;28;20465;-62
2021/07/29 17:42:58;;;;;;;4.80;3.87;;;24.80;84.80;;;;;;4996570;28;20457;-63
2021/07/29 17:45:25;;;;;;;3.50;3.20;;;24.80;85.50;;;;;;4996949;28;20458;-63
2021/07/29 17:47:51;;;;;;;4.27;3.90;;;24.70;86.30;;;;;;4996882;28;20477;-63
2021/07/29 17:50:18;;;;;;;3.67;3.20;;;24.60;87.00;;;;;;4996836;28;20458;-63
2021/07/29 17:52:45;;;;;;;3.67;3.47;;;24.50;85.80;;;;;;4996767;28;20462;-62
2021/07/29 17:55:13;;;;;;;3.73;3.53;;;24.50;87.30;;;;;;4996660;28;20478;-62
2021/07/29 17:57:40;;;;;;;3.50;3.30;;;24.40;86.90;;;;;;4996927;28;20454;-61
2021/07/29 18:00:08;;;;;;;3.93;3.47;;;24.40;87.30;;;;;;4996655;28;20460;-62
2021/07/29 18:02:34;;;;;;;5.90;3.90;;;24.30;88.00;;;;;;4996117;28;20488;-62
2021/07/29 18:05:01;;;;;;;3.70;3.50;;;24.30;89.30;;;;;;4996485;28;20454;-62
2021/07/29 18:07:31;;;;;;;4.67;4.20;;;24.30;88.40;;;;;;4996329;28;20939;-61
2021/07/29 18:09:58;;;;;;;4.50;4.20;;;24.20;89.10;;;;;;4996452;28;20442;-61
2021/07/29 18:12:26;;;;;;;3.60;3.40;;;24.10;88.60;;;;;;4996618;28;20493;-61